Spring Valley Lake, California
Current Conditions -  °F | °C
As of 3:55 PM on Wednesday 24 Dec 2014 (Local Time) from KVCV Reporting Station
Scattered Clouds Scattered Clouds  
Wind Chill: 63°   Ceiling: Unl
Heat Index: 63°   Visibility: 10mi
Dew Point: 30°   Wind: 6mph
Humidity: 30%   Direction: 190°S
Pressure: 29.93"   Gusts: NA
Location:  34.483°N, 117.376°W
Report Text: KVCV 242355Z AUTO 19005KT 10SM SCT110 17/M01 A2993 RMK AO2
Loading
Personal Weather Stations






























Interactive Weather Map New forecast layout! Learn more

10-Day Weather Forecast

Advertisements
Track Severe Weather on mobile